sensor_id;sensor_type;location;lat;lon;timestamp;pressure;altitude;pressure_sealevel;temperature;humidity
38452;BME280;24231;52.514;13.438;2023-02-02T00:03:02;100280.36;;;3.57;73.57
38452;BME280;24231;52.514;13.438;2023-02-02T00:05:31;100274.01;;;3.83;73.69
38452;BME280;24231;52.514;13.438;2023-02-02T00:08:41;100274.82;;;4.36;70.36
38452;BME280;24231;52.514;13.438;2023-02-02T00:11:22;100285.01;;;3.99;71.35
38452;BME280;24231;52.514;13.438;2023-02-02T00:13:49;100272.57;;;3.72;71.29
38452;BME280;24231;52.514;13.438;2023-02-02T00:16:37;100278.80;;;3.93;71.01
38452;BME280;24231;52.514;13.438;2023-02-02T00:19:06;100283.95;;;4.21;70.17
38452;BME280;24231;52.514;13.438;2023-02-02T00:21:34;100282.77;;;4.25;70.17
38452;BME280;24231;52.514;13.438;2023-02-02T00:24:01;100279.95;;;4.28;70.27
38452;BME280;24231;52.514;13.438;2023-02-02T00:26:28;100286.18;;;3.40;73.64
38452;BME280;24231;52.514;13.438;2023-02-02T00:28:56;100287.43;;;4.15;72.10
38452;BME280;24231;52.514;13.438;2023-02-02T00:31:23;100277.88;;;3.92;72.75
38452;BME280;24231;52.514;13.438;2023-02-02T00:33:50;100279.67;;;3.56;74.25
38452;BME280;24231;52.514;13.438;2023-02-02T00:36:19;100282.25;;;3.70;73.96
38452;BME280;24231;52.514;13.438;2023-02-02T00:38:46;100262.72;;;4.15;71.92
38452;BME280;24231;52.514;13.438;2023-02-02T00:41:15;100272.93;;;3.91;72.88
38452;BME280;24231;52.514;13.438;2023-02-02T00:43:42;100265.70;;;3.70;75.14
38452;BME280;24231;52.514;13.438;2023-02-02T00:46:13;100262.86;;;3.81;73.92
38452;BME280;24231;52.514;13.438;2023-02-02T00:48:42;100266.38;;;4.40;71.91
38452;BME280;24231;52.514;13.438;2023-02-02T00:51:09;100257.65;;;3.96;73.99
38452;BME280;24231;52.514;13.438;2023-02-02T00:53:36;100265.77;;;3.92;75.04
38452;BME280;24231;52.514;13.438;2023-02-02T00:56:04;100267.62;;;3.62;75.36
38452;BME280;24231;52.514;13.438;2023-02-02T00:58:31;100274.44;;;4.24;74.19
38452;BME280;24231;52.514;13.438;2023-02-02T01:00:58;100268.10;;;3.93;75.28
38452;BME280;24231;52.514;13.438;2023-02-02T01:03:25;100270.70;;;3.95;76.03
38452;BME280;24231;52.514;13.438;2023-02-02T01:05:52;100280.36;;;4.31;74.25
38452;BME280;24231;52.514;13.438;2023-02-02T01:08:20;100271.07;;;4.34;74.19
38452;BME280;24231;52.514;13.438;2023-02-02T01:10:46;100285.30;;;3.74;77.49
38452;BME280;24231;52.514;13.438;2023-02-02T01:13:13;100284.39;;;3.70;78.15
38452;BME280;24231;52.514;13.438;2023-02-02T01:15:40;100287.71;;;4.39;75.59
38452;BME280;24231;52.514;13.438;2023-02-02T01:18:07;100281.81;;;4.20;75.89
38452;BME280;24231;52.514;13.438;2023-02-02T01:20:35;100271.03;;;3.96;77.85
38452;BME280;24231;52.514;13.438;2023-02-02T01:23:03;100267.88;;;3.73;78.96
38452;BME280;24231;52.514;13.438;2023-02-02T01:25:30;100275.41;;;4.03;77.77
38452;BME280;24231;52.514;13.438;2023-02-02T01:27:57;100285.54;;;4.00;78.63
38452;BME280;24231;52.514;13.438;2023-02-02T01:30:24;100276.27;;;4.14;77.73
38452;BME280;24231;52.514;13.438;2023-02-02T01:32:53;100274.37;;;3.80;79.68
38452;BME280;24231;52.514;13.438;2023-02-02T01:35:20;100289.04;;;4.16;79.09
38452;BME280;24231;52.514;13.438;2023-02-02T01:37:47;100286.54;;;3.46;82.06
38452;BME280;24231;52.514;13.438;2023-02-02T01:40:14;100270.29;;;4.35;78.76
38452;BME280;24231;52.514;13.438;2023-02-02T01:42:42;100266.48;;;4.14;79.03
38452;BME280;24231;52.514;13.438;2023-02-02T01:45:18;100263.98;;;3.91;80.34
38452;BME280;24231;52.514;13.438;2023-02-02T01:47:49;100280.30;;;3.38;81.56
38452;BME280;24231;52.514;13.438;2023-02-02T01:50:20;100273.00;;;4.46;77.40
38452;BME280;24231;52.514;13.438;2023-02-02T01:52:49;100265.01;;;4.01;78.16
38452;BME280;24231;52.514;13.438;2023-02-02T01:55:21;100272.75;;;3.91;79.75
38452;BME280;24231;52.514;13.438;2023-02-02T01:57:52;100295.51;;;3.76;80.72
38452;BME280;24231;52.514;13.438;2023-02-02T02:00:21;100290.38;;;3.79;80.19
38452;BME280;24231;52.514;13.438;2023-02-02T02:02:48;100292.37;;;3.77;80.77
38452;BME280;24231;52.514;13.438;2023-02-02T02:05:21;100287.69;;;4.00;80.83
38452;BME280;24231;52.514;13.438;2023-02-02T02:07:52;100305.61;;;3.99;79.90
38452;BME280;24231;52.514;13.438;2023-02-02T02:10:22;100296.11;;;3.79;80.95
38452;BME280;24231;52.514;13.438;2023-02-02T02:12:49;100291.58;;;4.06;79.84
38452;BME280;24231;52.514;13.438;2023-02-02T02:15:17;100301.97;;;3.94;80.62
38452;BME280;24231;52.514;13.438;2023-02-02T02:17:55;100304.80;;;4.22;79.68
38452;BME280;24231;52.514;13.438;2023-02-02T02:20:42;100302.98;;;4.16;77.86
38452;BME280;24231;52.514;13.438;2023-02-02T02:23:52;100305.76;;;3.63;81.34
38452;BME280;24231;52.514;13.438;2023-02-02T02:27:17;100308.06;;;4.20;77.96
38452;BME280;24231;52.514;13.438;2023-02-02T02:32:49;100315.64;;;4.24;79.14
38452;BME280;24231;52.514;13.438;2023-02-02T02:35:26;100322.33;;;4.49;76.43
38452;BME280;24231;52.514;13.438;2023-02-02T02:37:59;100326.73;;;4.10;77.90
38452;BME280;24231;52.514;13.438;2023-02-02T02:40:35;100328.28;;;3.97;78.72
38452;BME280;24231;52.514;13.438;2023-02-02T02:43:06;100332.11;;;4.77;75.43
38452;BME280;24231;52.514;13.438;2023-02-02T02:45:36;100329.87;;;4.80;75.16
38452;BME280;24231;52.514;13.438;2023-02-02T02:48:04;100336.59;;;4.26;76.48
38452;BME280;24231;52.514;13.438;2023-02-02T02:50:31;100344.89;;;4.87;74.51
38452;BME280;24231;52.514;13.438;2023-02-02T02:53:04;100342.01;;;4.91;73.88
38452;BME280;24231;52.514;13.438;2023-02-02T02:55:38;100334.13;;;4.62;75.08
38452;BME280;24231;52.514;13.438;2023-02-02T02:58:12;100336.34;;;4.51;75.55
38452;BME280;24231;52.514;13.438;2023-02-02T03:00:50;100330.98;;;4.36;76.42
38452;BME280;24231;52.514;13.438;2023-02-02T03:03:40;100345.29;;;4.77;74.52
38452;BME280;24231;52.514;13.438;2023-02-02T03:06:19;100340.82;;;4.40;75.24
38452;BME280;24231;52.514;13.438;2023-02-02T03:08:52;100347.08;;;4.05;77.40
38452;BME280;24231;52.514;13.438;2023-02-02T03:11:21;100355.83;;;4.68;75.17
38452;BME280;24231;52.514;13.438;2023-02-02T03:13:48;100344.63;;;4.51;75.76
38452;BME280;24231;52.514;13.438;2023-02-02T03:16:16;100369.71;;;4.34;76.67
38452;BME280;24231;52.514;13.438;2023-02-02T03:18:43;100378.41;;;4.43;75.63
38452;BME280;24231;52.514;13.438;2023-02-02T03:21:10;100372.01;;;4.96;73.25
38452;BME280;24231;52.514;13.438;2023-02-02T03:23:37;100379.31;;;4.82;73.45
38452;BME280;24231;52.514;13.438;2023-02-02T03:26:05;100373.56;;;4.38;75.76
38452;BME280;24231;52.514;13.438;2023-02-02T03:28:38;100389.21;;;4.31;76.34
38452;BME280;24231;52.514;13.438;2023-02-02T03:31:05;100408.95;;;4.30;76.85
38452;BME280;24231;52.514;13.438;2023-02-02T03:33:34;100396.91;;;4.53;75.48
38452;BME280;24231;52.514;13.438;2023-02-02T03:36:02;100408.66;;;4.49;75.30
38452;BME280;24231;52.514;13.438;2023-02-02T03:38:29;100404.81;;;4.15;77.42
38452;BME280;24231;52.514;13.438;2023-02-02T03:40:57;100415.58;;;4.12;77.31
38452;BME280;24231;52.514;13.438;2023-02-02T03:43:24;100428.41;;;4.31;76.82
38452;BME280;24231;52.514;13.438;2023-02-02T03:45:55;100427.82;;;3.76;79.72
38452;BME280;24231;52.514;13.438;2023-02-02T03:48:22;100440.27;;;4.35;76.85
38452;BME280;24231;52.514;13.438;2023-02-02T03:50:50;100444.03;;;3.82;78.87
38452;BME280;24231;52.514;13.438;2023-02-02T03:53:17;100457.21;;;4.44;76.60
38452;BME280;24231;52.514;13.438;2023-02-02T03:55:44;100460.11;;;4.48;76.38
38452;BME280;24231;52.514;13.438;2023-02-02T03:58:12;100456.47;;;4.80;74.48
38452;BME280;24231;52.514;13.438;2023-02-02T04:00:39;100459.85;;;4.28;75.63
38452;BME280;24231;52.514;13.438;2023-02-02T04:03:07;100466.09;;;4.58;74.89
38452;BME280;24231;52.514;13.438;2023-02-02T04:05:34;100468.82;;;4.51;75.06
38452;BME280;24231;52.514;13.438;2023-02-02T04:08:01;100477.82;;;4.44;75.55
38452;BME280;24231;52.514;13.438;2023-02-02T04:10:29;100487.47;;;4.74;74.50
38452;BME280;24231;52.514;13.438;2023-02-02T04:13:01;100496.69;;;5.07;73.46
38452;BME280;24231;52.514;13.438;2023-02-02T04:15:28;100502.37;;;4.93;74.06
38452;BME280;24231;52.514;13.438;2023-02-02T04:17:56;100503.24;;;4.27;75.63
38452;BME280;24231;52.514;13.438;2023-02-02T04:20:23;100512.44;;;4.81;73.68
38452;BME280;24231;52.514;13.438;2023-02-02T04:22:50;100513.66;;;4.90;73.42
38452;BME280;24231;52.514;13.438;2023-02-02T04:25:18;100517.77;;;4.92;72.48
38452;BME280;24231;52.514;13.438;2023-02-02T04:27:50;100512.48;;;4.75;72.69
38452;BME280;24231;52.514;13.438;2023-02-02T04:30:17;100532.77;;;4.64;73.77
38452;BME280;24231;52.514;13.438;2023-02-02T04:32:51;100540.86;;;4.19;75.99
38452;BME280;24231;52.514;13.438;2023-02-02T04:35:19;100539.16;;;5.19;71.64
38452;BME280;24231;52.514;13.438;2023-02-02T04:37:46;100532.77;;;5.65;68.79
38452;BME280;24231;52.514;13.438;2023-02-02T04:40:14;100539.38;;;5.29;70.21
38452;BME280;24231;52.514;13.438;2023-02-02T04:42:41;100551.04;;;4.90;71.52
38452;BME280;24231;52.514;13.438;2023-02-02T04:45:09;100547.43;;;4.99;71.59
38452;BME280;24231;52.514;13.438;2023-02-02T04:47:37;100553.70;;;4.72;71.71
38452;BME280;24231;52.514;13.438;2023-02-02T04:50:05;100551.62;;;4.74;71.80
38452;BME280;24231;52.514;13.438;2023-02-02T04:52:33;100559.58;;;4.70;72.78
38452;BME280;24231;52.514;13.438;2023-02-02T04:55:00;100556.91;;;5.31;70.55
38452;BME280;24231;52.514;13.438;2023-02-02T04:57:28;100566.41;;;4.84;71.79
38452;BME280;24231;52.514;13.438;2023-02-02T04:59:55;100577.18;;;4.79;71.98
38452;BME280;24231;52.514;13.438;2023-02-02T05:02:22;100573.80;;;5.02;71.38
38452;BME280;24231;52.514;13.438;2023-02-02T05:04:50;100583.06;;;4.32;73.44
38452;BME280;24231;52.514;13.438;2023-02-02T05:07:17;100583.49;;;4.57;73.26
38452;BME280;24231;52.514;13.438;2023-02-02T05:09:45;100594.25;;;5.00;72.33
38452;BME280;24231;52.514;13.438;2023-02-02T05:12:12;100596.32;;;5.62;69.82
38452;BME280;24231;52.514;13.438;2023-02-02T05:14:39;100600.47;;;5.03;72.09
38452;BME280;24231;52.514;13.438;2023-02-02T05:17:29;100613.44;;;4.55;74.67
38452;BME280;24231;52.514;13.438;2023-02-02T05:19:56;100613.65;;;4.59;74.14
38452;BME280;24231;52.514;13.438;2023-02-02T05:22:23;100619.87;;;4.62;72.87
38452;BME280;24231;52.514;13.438;2023-02-02T05:24:50;100622.23;;;5.61;69.68
38452;BME280;24231;52.514;13.438;2023-02-02T05:27:18;100631.39;;;4.97;72.51
38452;BME280;24231;52.514;13.438;2023-02-02T05:29:46;100637.82;;;4.71;74.40
38452;BME280;24231;52.514;13.438;2023-02-02T05:32:13;100635.40;;;5.04;73.03
38452;BME280;24231;52.514;13.438;2023-02-02T05:34:40;100635.52;;;5.29;71.47
38452;BME280;24231;52.514;13.438;2023-02-02T05:37:06;100641.03;;;5.80;69.17
38452;BME280;24231;52.514;13.438;2023-02-02T05:39:34;100646.99;;;5.34;71.51
38452;BME280;24231;52.514;13.438;2023-02-02T05:42:01;100649.81;;;5.19;70.45
38452;BME280;24231;52.514;13.438;2023-02-02T05:44:28;100649.24;;;5.70;69.00
38452;BME280;24231;52.514;13.438;2023-02-02T05:46:56;100660.64;;;4.30;74.19
38452;BME280;24231;52.514;13.438;2023-02-02T05:49:23;100666.51;;;4.92;72.18
38452;BME280;24231;52.514;13.438;2023-02-02T05:51:52;100671.25;;;4.68;73.20
38452;BME280;24231;52.514;13.438;2023-02-02T05:54:20;100670.39;;;5.10;70.89
38452;BME280;24231;52.514;13.438;2023-02-02T05:56:48;100671.26;;;5.55;69.49
38452;BME280;24231;52.514;13.438;2023-02-02T05:59:16;100676.71;;;4.67;71.95
38452;BME280;24231;52.514;13.438;2023-02-02T06:01:43;100675.37;;;4.49;72.68
38452;BME280;24231;52.514;13.438;2023-02-02T06:04:11;100683.74;;;4.74;71.30
38452;BME280;24231;52.514;13.438;2023-02-02T06:06:38;100691.59;;;5.21;70.04
38452;BME280;24231;52.514;13.438;2023-02-02T06:09:06;100694.83;;;5.17;69.65
38452;BME280;24231;52.514;13.438;2023-02-02T06:11:33;100701.53;;;5.42;68.09
38452;BME280;24231;52.514;13.438;2023-02-02T06:14:00;100695.35;;;5.25;69.08
38452;BME280;24231;52.514;13.438;2023-02-02T06:16:28;100704.72;;;5.63;67.31
38452;BME280;24231;52.514;13.438;2023-02-02T06:18:55;100709.45;;;4.66;70.63
38452;BME280;24231;52.514;13.438;2023-02-02T06:21:23;100717.36;;;5.05;68.86
38452;BME280;24231;52.514;13.438;2023-02-02T06:23:50;100717.74;;;5.45;67.52
38452;BME280;24231;52.514;13.438;2023-02-02T06:26:18;100722.22;;;5.46;67.39
38452;BME280;24231;52.514;13.438;2023-02-02T06:28:48;100730.82;;;5.34;67.82
38452;BME280;24231;52.514;13.438;2023-02-02T06:31:16;100733.42;;;4.58;71.51
38452;BME280;24231;52.514;13.438;2023-02-02T06:33:46;100726.72;;;4.73;69.86
38452;BME280;24231;52.514;13.438;2023-02-02T06:36:14;100738.98;;;5.64;67.18
38452;BME280;24231;52.514;13.438;2023-02-02T06:38:41;100741.20;;;5.53;66.20
38452;BME280;24231;52.514;13.438;2023-02-02T06:41:09;100744.47;;;5.10;67.93
38452;BME280;24231;52.514;13.438;2023-02-02T06:43:36;100742.86;;;4.45;70.82
38452;BME280;24231;52.514;13.438;2023-02-02T06:46:03;100758.17;;;4.24;71.97
38452;BME280;24231;52.514;13.438;2023-02-02T06:48:30;100766.89;;;4.57;71.01
38452;BME280;24231;52.514;13.438;2023-02-02T06:50:59;100764.01;;;4.92;69.23
38452;BME280;24231;52.514;13.438;2023-02-02T06:53:26;100769.61;;;5.07;68.02
38452;BME280;24231;52.514;13.438;2023-02-02T06:55:53;100774.73;;;4.92;69.26
38452;BME280;24231;52.514;13.438;2023-02-02T06:58:21;100781.34;;;5.22;67.42
38452;BME280;24231;52.514;13.438;2023-02-02T07:00:48;100788.79;;;4.48;69.90
38452;BME280;24231;52.514;13.438;2023-02-02T07:03:16;100783.94;;;5.00;67.96
38452;BME280;24231;52.514;13.438;2023-02-02T07:05:43;100794.46;;;5.54;66.00
38452;BME280;24231;52.514;13.438;2023-02-02T07:08:11;100800.48;;;4.98;67.04
38452;BME280;24231;52.514;13.438;2023-02-02T07:10:39;100802.17;;;5.41;65.91
38452;BME280;24231;52.514;13.438;2023-02-02T07:13:06;100807.59;;;5.39;64.89
38452;BME280;24231;52.514;13.438;2023-02-02T07:15:33;100814.72;;;4.64;66.75
38452;BME280;24231;52.514;13.438;2023-02-02T07:18:00;100816.85;;;5.15;65.46
38452;BME280;24231;52.514;13.438;2023-02-02T07:20:28;100831.76;;;4.55;67.00
38452;BME280;24231;52.514;13.438;2023-02-02T07:22:55;100829.84;;;5.55;62.72
38452;BME280;24231;52.514;13.438;2023-02-02T07:25:23;100836.40;;;4.74;65.44
38452;BME280;24231;52.514;13.438;2023-02-02T07:27:52;100841.02;;;4.96;62.89
38452;BME280;24231;52.514;13.438;2023-02-02T07:30:20;100853.18;;;4.91;63.42
38452;BME280;24231;52.514;13.438;2023-02-02T07:32:47;100856.89;;;5.34;62.41
38452;BME280;24231;52.514;13.438;2023-02-02T07:35:14;100857.83;;;5.73;60.26
38452;BME280;24231;52.514;13.438;2023-02-02T07:37:42;100862.78;;;5.06;62.89
38452;BME280;24231;52.514;13.438;2023-02-02T07:40:11;100858.34;;;5.66;60.49
38452;BME280;24231;52.514;13.438;2023-02-02T07:42:38;100856.90;;;5.46;60.89
38452;BME280;24231;52.514;13.438;2023-02-02T07:45:06;100860.49;;;5.08;62.16
38452;BME280;24231;52.514;13.438;2023-02-02T07:47:41;100855.93;;;6.27;58.13
38452;BME280;24231;52.514;13.438;2023-02-02T07:50:09;100864.41;;;6.49;57.80
38452;BME280;24231;52.514;13.438;2023-02-02T07:52:36;100867.22;;;6.34;57.91
38452;BME280;24231;52.514;13.438;2023-02-02T07:55:05;100866.77;;;7.12;55.64
38452;BME280;24231;52.514;13.438;2023-02-02T07:57:32;100872.80;;;5.66;60.35
38452;BME280;24231;52.514;13.438;2023-02-02T07:59:59;100874.85;;;6.24;58.21
38452;BME280;24231;52.514;13.438;2023-02-02T08:02:26;100883.31;;;6.33;58.89
38452;BME280;24231;52.514;13.438;2023-02-02T08:04:53;100881.55;;;6.68;57.46
38452;BME280;24231;52.514;13.438;2023-02-02T08:07:21;100881.76;;;7.11;57.32
38452;BME280;24231;52.514;13.438;2023-02-02T08:09:48;100889.38;;;6.74;58.54
38452;BME280;24231;52.514;13.438;2023-02-02T08:12:15;100893.55;;;7.27;57.28
38452;BME280;24231;52.514;13.438;2023-02-02T08:14:43;100898.54;;;7.15;57.42
38452;BME280;24231;52.514;13.438;2023-02-02T08:17:10;100897.35;;;8.09;54.89
38452;BME280;24231;52.514;13.438;2023-02-02T08:19:37;100903.13;;;8.06;55.56
38452;BME280;24231;52.514;13.438;2023-02-02T08:22:05;100912.36;;;8.33;54.71
38452;BME280;24231;52.514;13.438;2023-02-02T08:24:31;100911.11;;;8.21;55.61
38452;BME280;24231;52.514;13.438;2023-02-02T08:26:59;100915.73;;;7.35;57.60
38452;BME280;24231;52.514;13.438;2023-02-02T08:29:26;100915.88;;;8.73;54.57
38452;BME280;24231;52.514;13.438;2023-02-02T08:31:53;100916.11;;;7.82;55.79
38452;BME280;24231;52.514;13.438;2023-02-02T08:34:20;100917.34;;;7.82;56.78
38452;BME280;24231;52.514;13.438;2023-02-02T08:36:47;100922.66;;;8.36;55.21
38452;BME280;24231;52.514;13.438;2023-02-02T08:39:15;100918.00;;;8.76;54.62
38452;BME280;24231;52.514;13.438;2023-02-02T08:41:42;100919.58;;;8.67;54.63
38452;BME280;24231;52.514;13.438;2023-02-02T08:44:12;100921.20;;;8.03;56.18
38452;BME280;24231;52.514;13.438;2023-02-02T08:46:39;100925.10;;;7.52;57.71
38452;BME280;24231;52.514;13.438;2023-02-02T08:49:09;100927.29;;;7.64;58.14
38452;BME280;24231;52.514;13.438;2023-02-02T08:51:37;100926.78;;;8.91;53.75
38452;BME280;24231;52.514;13.438;2023-02-02T08:54:04;100936.30;;;8.46;55.53
38452;BME280;24231;52.514;13.438;2023-02-02T08:56:31;100932.45;;;9.41;52.70
38452;BME280;24231;52.514;13.438;2023-02-02T08:58:58;100940.95;;;8.89;53.03
38452;BME280;24231;52.514;13.438;2023-02-02T09:01:33;100941.68;;;8.49;53.55
38452;BME280;24231;52.514;13.438;2023-02-02T09:04:02;100936.43;;;9.85;50.24
38452;BME280;24231;52.514;13.438;2023-02-02T09:06:31;100947.52;;;8.67;53.40
38452;BME280;24231;52.514;13.438;2023-02-02T09:08:59;100950.05;;;7.39;57.39
38452;BME280;24231;52.514;13.438;2023-02-02T09:11:27;100951.80;;;7.67;57.18
38452;BME280;24231;52.514;13.438;2023-02-02T09:13:56;100956.97;;;7.94;56.45
38452;BME280;24231;52.514;13.438;2023-02-02T09:16:25;100959.38;;;8.48;54.53
38452;BME280;24231;52.514;13.438;2023-02-02T09:18:53;100967.05;;;8.55;53.91
38452;BME280;24231;52.514;13.438;2023-02-02T09:21:21;100967.83;;;7.44;57.06
38452;BME280;24231;52.514;13.438;2023-02-02T09:23:49;100977.32;;;7.80;55.89
38452;BME280;24231;52.514;13.438;2023-02-02T09:26:18;100978.39;;;7.70;56.57
38452;BME280;24231;52.514;13.438;2023-02-02T09:28:48;100987.20;;;7.52;56.74
38452;BME280;24231;52.514;13.438;2023-02-02T09:31:16;100989.91;;;7.61;56.85
38452;BME280;24231;52.514;13.438;2023-02-02T09:33:43;100998.71;;;8.03;55.67
38452;BME280;24231;52.514;13.438;2023-02-02T09:36:12;100993.56;;;8.46;54.42
38452;BME280;24231;52.514;13.438;2023-02-02T09:38:40;100991.10;;;7.32;57.13
38452;BME280;24231;52.514;13.438;2023-02-02T09:41:50;101004.64;;;7.51;56.24
38452;BME280;24231;52.514;13.438;2023-02-02T09:44:34;101005.97;;;7.65;55.87
38452;BME280;24231;52.514;13.438;2023-02-02T09:47:11;101015.44;;;7.86;55.51
38452;BME280;24231;52.514;13.438;2023-02-02T09:49:50;101017.31;;;8.61;53.50
38452;BME280;24231;52.514;13.438;2023-02-02T09:52:24;101008.64;;;7.61;55.97
38452;BME280;24231;52.514;13.438;2023-02-02T09:54:58;101022.55;;;7.17;56.65
38452;BME280;24231;52.514;13.438;2023-02-02T09:57:30;101018.01;;;8.06;54.83
38452;BME280;24231;52.514;13.438;2023-02-02T09:59:58;101023.28;;;7.48;55.82
38452;BME280;24231;52.514;13.438;2023-02-02T10:02:30;101021.87;;;7.27;56.77
38452;BME280;24231;52.514;13.438;2023-02-02T10:05:04;101032.94;;;6.65;57.95
38452;BME280;24231;52.514;13.438;2023-02-02T10:07:35;101028.35;;;7.32;58.66
38452;BME280;24231;52.514;13.438;2023-02-02T10:10:08;101025.10;;;6.79;58.51
38452;BME280;24231;52.514;13.438;2023-02-02T10:12:42;101008.65;;;7.14;57.11
38452;BME280;24231;52.514;13.438;2023-02-02T10:15:15;101023.47;;;6.64;56.58
38452;BME280;24231;52.514;13.438;2023-02-02T10:17:47;101026.75;;;6.39;57.13
38452;BME280;24231;52.514;13.438;2023-02-02T10:20:24;101040.27;;;7.03;56.69
38452;BME280;24231;52.514;13.438;2023-02-02T10:23:02;101035.90;;;6.78;57.36
38452;BME280;24231;52.514;13.438;2023-02-02T10:25:34;101045.34;;;7.07;56.61
38452;BME280;24231;52.514;13.438;2023-02-02T10:28:06;101039.89;;;7.46;55.30
38452;BME280;24231;52.514;13.438;2023-02-02T10:30:44;101032.13;;;6.46;59.45
38452;BME280;24231;52.514;13.438;2023-02-02T10:33:19;101046.44;;;6.10;58.75
38452;BME280;24231;52.514;13.438;2023-02-02T10:35:52;101044.86;;;6.50;55.31
38452;BME280;24231;52.514;13.438;2023-02-02T10:38:28;101043.13;;;6.50;54.49
38452;BME280;24231;52.514;13.438;2023-02-02T10:41:06;101042.32;;;7.58;52.82
38452;BME280;24231;52.514;13.438;2023-02-02T10:43:51;101048.19;;;7.88;49.66
38452;BME280;24231;52.514;13.438;2023-02-02T10:46:24;101045.97;;;7.70;49.64
38452;BME280;24231;52.514;13.438;2023-02-02T10:49:09;101039.61;;;7.76;48.77
38452;BME280;24231;52.514;13.438;2023-02-02T10:51:38;101049.76;;;7.64;48.23
38452;BME280;24231;52.514;13.438;2023-02-02T10:54:24;101048.50;;;6.94;50.38
38452;BME280;24231;52.514;13.438;2023-02-02T10:56:59;101054.26;;;7.58;49.97
38452;BME280;24231;52.514;13.438;2023-02-02T10:59:30;101058.00;;;7.75;49.48
38452;BME280;24231;52.514;13.438;2023-02-02T11:01:58;101063.32;;;7.50;50.14
38452;BME280;24231;52.514;13.438;2023-02-02T11:04:27;101067.91;;;7.49;50.69
38452;BME280;24231;52.514;13.438;2023-02-02T11:06:55;101073.42;;;7.64;50.32
38452;BME280;24231;52.514;13.438;2023-02-02T11:09:23;101081.67;;;6.65;52.44
38452;BME280;24231;52.514;13.438;2023-02-02T11:11:54;101088.27;;;6.19;52.91
38452;BME280;24231;52.514;13.438;2023-02-02T11:14:31;101088.66;;;6.54;52.74
38452;BME280;24231;52.514;13.438;2023-02-02T11:17:03;101090.85;;;6.92;51.37
38452;BME280;24231;52.514;13.438;2023-02-02T11:19:32;101088.74;;;7.69;48.81
38452;BME280;24231;52.514;13.438;2023-02-02T11:22:01;101086.61;;;8.00;48.00
38452;BME280;24231;52.514;13.438;2023-02-02T11:24:39;101086.98;;;7.86;48.56
38452;BME280;24231;52.514;13.438;2023-02-02T11:27:12;101100.28;;;8.04;47.87
38452;BME280;24231;52.514;13.438;2023-02-02T11:29:46;101101.15;;;8.17;48.12
38452;BME280;24231;52.514;13.438;2023-02-02T11:32:22;101108.41;;;8.19;47.47
38452;BME280;24231;52.514;13.438;2023-02-02T11:35:14;101106.43;;;8.70;46.82
38452;BME280;24231;52.514;13.438;2023-02-02T11:37:53;101114.69;;;7.95;48.69
38452;BME280;24231;52.514;13.438;2023-02-02T11:40:27;101108.68;;;8.26;48.18
38452;BME280;24231;52.514;13.438;2023-02-02T11:42:56;101108.97;;;7.29;50.41
38452;BME280;24231;52.514;13.438;2023-02-02T11:45:28;101109.18;;;9.36;47.01
38452;BME280;24231;52.514;13.438;2023-02-02T11:48:00;101104.90;;;8.65;45.89
38452;BME280;24231;52.514;13.438;2023-02-02T11:50:34;101116.12;;;8.75;46.73
38452;BME280;24231;52.514;13.438;2023-02-02T11:53:01;101111.13;;;9.06;45.92
38452;BME280;24231;52.514;13.438;2023-02-02T11:55:29;101109.85;;;8.88;46.85
38452;BME280;24231;52.514;13.438;2023-02-02T11:58:47;101118.83;;;8.15;47.65
38452;BME280;24231;52.514;13.438;2023-02-02T12:01:24;101126.02;;;7.35;50.79
38452;BME280;24231;52.514;13.438;2023-02-02T12:03:53;101126.46;;;7.47;50.16
38452;BME280;24231;52.514;13.438;2023-02-02T12:06:22;101134.77;;;7.45;50.60
38452;BME280;24231;52.514;13.438;2023-02-02T12:08:53;101142.79;;;8.29;49.16
38452;BME280;24231;52.514;13.438;2023-02-02T12:11:33;101134.95;;;7.91;50.20
38452;BME280;24231;52.514;13.438;2023-02-02T12:14:16;101148.95;;;7.35;53.50
38452;BME280;24231;52.514;13.438;2023-02-02T12:16:56;101166.90;;;6.52;56.61
38452;BME280;24231;52.514;13.438;2023-02-02T12:20:40;101171.79;;;6.79;56.91
38452;BME280;24231;52.514;13.438;2023-02-02T12:23:24;101184.05;;;6.07;59.98
38452;BME280;24231;52.514;13.438;2023-02-02T12:26:06;101190.68;;;6.57;59.34
38452;BME280;24231;52.514;13.438;2023-02-02T12:28:46;101187.04;;;6.86;57.89
38452;BME280;24231;52.514;13.438;2023-02-02T12:31:24;101204.79;;;6.80;57.95
38452;BME280;24231;52.514;13.438;2023-02-02T12:33:56;101197.67;;;6.89;57.38
38452;BME280;24231;52.514;13.438;2023-02-02T12:36:37;101195.34;;;6.62;57.85
38452;BME280;24231;52.514;13.438;2023-02-02T12:39:19;101196.95;;;6.13;58.33
38452;BME280;24231;52.514;13.438;2023-02-02T12:42:06;101190.39;;;6.67;57.03
38452;BME280;24231;52.514;13.438;2023-02-02T12:44:47;101191.90;;;6.79;56.24
38452;BME280;24231;52.514;13.438;2023-02-02T12:47:24;101189.53;;;6.88;55.77
38452;BME280;24231;52.514;13.438;2023-02-02T12:50:03;101201.74;;;6.74;55.94
38452;BME280;24231;52.514;13.438;2023-02-02T12:52:43;101198.64;;;7.21;54.88
38452;BME280;24231;52.514;13.438;2023-02-02T12:55:21;101205.96;;;6.60;56.25
38452;BME280;24231;52.514;13.438;2023-02-02T12:57:58;101201.44;;;7.19;54.87
38452;BME280;24231;52.514;13.438;2023-02-02T13:00:41;101196.20;;;7.24;54.09
38452;BME280;24231;52.514;13.438;2023-02-02T13:03:24;101204.14;;;6.86;53.37
38452;BME280;24231;52.514;13.438;2023-02-02T13:06:02;101211.47;;;6.92;53.83
38452;BME280;24231;52.514;13.438;2023-02-02T13:08:36;101205.64;;;7.55;51.37
38452;BME280;24231;52.514;13.438;2023-02-02T13:11:08;101217.27;;;6.86;53.19
38452;BME280;24231;52.514;13.438;2023-02-02T13:13:38;101218.63;;;6.82;53.15
38452;BME280;24231;52.514;13.438;2023-02-02T13:16:09;101224.73;;;7.28;51.83